Time;durP1;ratioP1;P1;durP2;ratioP2;P2;SDS_P1;SDS_P2;PMS_P1;PMS_P2;Temp;Humidity;BMP_temperature;BMP_pressure;BME280_temperature;BME280_humidity;BME280_pressure;Samples;Min_cycle;Max_cycle;Signal;HPM_P1;HPM_P2
2023/05/12 00:02:16;;;;;;;6.00;5.35;;;11.80;99.90;;;;;;5047660;28;20098;-52
2023/05/12 00:04:42;;;;;;;6.32;5.70;;;11.80;99.90;;;;;;5047552;28;20083;-51
2023/05/12 00:07:07;;;;;;;5.80;5.30;;;11.80;99.90;;;;;;5047827;28;20025;-50
2023/05/12 00:09:33;;;;;;;6.53;5.03;;;11.80;99.90;;;;;;5047525;28;20111;-50
2023/05/12 00:11:59;;;;;;;5.90;5.40;;;11.80;99.90;;;;;;5050923;28;20029;-54
2023/05/12 00:14:24;;;;;;;7.68;5.18;;;11.80;99.90;;;;;;5047813;28;20029;-51
2023/05/12 00:16:50;;;;;;;5.57;5.00;;;11.80;99.90;;;;;;5051932;28;20548;-51
2023/05/12 00:19:19;;;;;;;6.57;5.93;;;11.80;99.90;;;;;;5046319;28;20104;-50
2023/05/12 00:21:46;;;;;;;5.13;4.57;;;11.80;99.90;;;;;;5049032;28;20061;-51
2023/05/12 00:24:11;;;;;;;5.05;4.60;;;11.90;99.90;;;;;;5051819;28;20029;-51
2023/05/12 00:26:37;;;;;;;4.90;4.50;;;11.80;99.90;;;;;;5050780;28;20066;-50
2023/05/12 00:29:02;;;;;;;5.53;4.75;;;11.90;99.90;;;;;;5050607;28;20021;-54
2023/05/12 00:31:31;;;;;;;5.40;4.97;;;11.90;99.90;;;;;;5050940;28;20037;-53
2023/05/12 00:33:57;;;;;;;5.68;4.97;;;11.90;99.90;;;;;;5049039;28;20017;-54
2023/05/12 00:36:22;;;;;;;5.38;4.88;;;11.80;99.90;;;;;;5049345;28;20040;-51
2023/05/12 00:38:48;;;;;;;5.40;4.93;;;11.80;99.90;;;;;;5050016;28;20029;-51
2023/05/12 00:41:13;;;;;;;5.45;4.90;;;11.90;99.90;;;;;;5051415;28;20041;-53
2023/05/12 00:43:39;;;;;;;6.18;5.47;;;11.90;99.90;;;;;;5051697;28;20029;-51
2023/05/12 00:46:05;;;;;;;4.38;4.07;;;11.90;99.90;;;;;;5051488;28;20039;-50
2023/05/12 00:48:31;;;;;;;6.45;4.63;;;11.90;99.90;;;;;;5050604;28;20060;-53
2023/05/12 00:50:59;;;;;;;4.70;4.30;;;11.90;99.90;;;;;;5051354;28;20025;-52
2023/05/12 00:53:25;;;;;;;5.13;4.63;;;11.90;99.90;;;;;;5051736;28;20096;-51
2023/05/12 00:55:54;;;;;;;5.32;4.82;;;12.00;99.90;;;;;;5051063;28;20194;-53
2023/05/12 00:58:20;;;;;;;5.65;4.55;;;12.00;99.90;;;;;;5049678;28;20086;-53
2023/05/12 01:00:45;;;;;;;5.43;4.93;;;12.00;99.90;;;;;;5048367;28;20171;-53
2023/05/12 01:03:11;;;;;;;7.38;5.13;;;12.00;99.90;;;;;;5048487;28;20037;-52
2023/05/12 01:05:48;;;;;;;4.72;3.75;;;12.00;99.90;;;;;;5050827;28;20031;-52
2023/05/12 01:08:15;;;;;;;5.18;4.43;;;12.00;99.90;;;;;;5046525;28;20029;-52
2023/05/12 01:10:44;;;;;;;4.80;4.30;;;12.10;99.90;;;;;;5051191;28;20021;-54
2023/05/12 01:13:09;;;;;;;5.07;4.38;;;12.10;99.90;;;;;;5050776;28;20037;-54
2023/05/12 01:15:38;;;;;;;5.03;4.53;;;12.10;99.90;;;;;;5049858;28;20029;-55
2023/05/12 01:18:05;;;;;;;4.70;4.30;;;12.10;99.90;;;;;;5050933;28;20029;-52
2023/05/12 01:20:31;;;;;;;6.10;4.03;;;12.20;99.90;;;;;;5049751;28;20128;-51
2023/05/12 01:22:58;;;;;;;4.47;4.03;;;12.20;99.90;;;;;;5050081;28;20025;-50
2023/05/12 01:25:25;;;;;;;4.43;4.13;;;12.20;99.90;;;;;;5051069;28;20403;-52
2023/05/12 01:27:52;;;;;;;7.18;4.50;;;12.10;99.90;;;;;;5050516;28;20503;-50
2023/05/12 01:30:18;;;;;;;4.20;3.90;;;12.20;99.90;;;;;;5068376;22;20495;-62
2023/05/12 01:32:44;;;;;;;6.00;4.88;;;12.20;99.90;;;;;;5034857;28;20382;-62
2023/05/12 01:35:10;;;;;;;5.10;3.97;;;12.20;99.90;;;;;;5030166;28;20026;-62
2023/05/12 01:37:35;;;;;;;5.18;3.80;;;12.20;99.90;;;;;;5033211;28;20029;-63
2023/05/12 01:40:01;;;;;;;6.88;4.47;;;12.20;99.90;;;;;;5036385;28;20691;-62
2023/05/12 01:42:27;;;;;;;5.80;4.40;;;12.20;99.90;;;;;;5010342;28;20029;-63
2023/05/12 01:44:53;;;;;;;5.88;4.20;;;12.20;99.90;;;;;;5029983;28;20033;-62
2023/05/12 01:47:20;;;;;;;4.70;4.05;;;12.20;99.90;;;;;;5030402;28;20030;-62
2023/05/12 01:49:46;;;;;;;6.97;4.45;;;12.20;99.90;;;;;;5029012;28;20033;-63
2023/05/12 01:52:12;;;;;;;4.78;4.38;;;12.20;99.90;;;;;;5030522;28;20052;-60
2023/05/12 01:54:38;;;;;;;4.97;3.70;;;12.20;99.90;;;;;;5030658;28;20035;-62
2023/05/12 01:57:04;;;;;;;4.95;4.50;;;12.30;99.90;;;;;;5029957;28;20021;-62
2023/05/12 01:59:29;;;;;;;4.63;3.80;;;12.30;99.90;;;;;;5014734;28;20514;-62
2023/05/12 02:01:55;;;;;;;4.80;4.40;;;12.30;99.90;;;;;;5028278;28;20037;-62
2023/05/12 02:04:21;;;;;;;5.50;4.30;;;12.30;99.90;;;;;;5029224;28;20041;-62
2023/05/12 02:06:46;;;;;;;4.28;3.88;;;12.30;99.90;;;;;;5028272;28;20022;-61
2023/05/12 02:09:12;;;;;;;5.25;4.07;;;12.40;99.90;;;;;;5030336;28;20026;-62
2023/05/12 02:11:38;;;;;;;4.50;4.10;;;12.40;99.90;;;;;;5029789;28;20476;-60
2023/05/12 02:14:03;;;;;;;4.63;3.70;;;12.50;99.90;;;;;;5030123;28;20021;-62
2023/05/12 02:16:29;;;;;;;4.30;3.90;;;12.50;99.90;;;;;;5029690;28;20025;-61
2023/05/12 02:18:54;;;;;;;4.43;4.13;;;12.50;99.90;;;;;;5029569;28;20025;-62
2023/05/12 02:21:20;;;;;;;10.52;4.13;;;12.50;99.90;;;;;;5029434;28;20030;-61
2023/05/12 02:23:47;;;;;;;4.70;4.00;;;12.50;99.90;;;;;;5030129;28;20071;-61
2023/05/12 02:26:12;;;;;;;4.07;3.67;;;12.60;99.90;;;;;;5030025;28;20393;-61
2023/05/12 02:28:38;;;;;;;4.25;3.78;;;12.60;99.90;;;;;;5028789;28;20377;-62
2023/05/12 02:31:03;;;;;;;4.10;3.70;;;12.60;99.90;;;;;;5029008;28;20033;-61
2023/05/12 02:33:29;;;;;;;3.95;3.55;;;12.60;99.90;;;;;;5028888;28;20038;-62
2023/05/12 02:35:55;;;;;;;5.88;4.38;;;12.60;99.90;;;;;;5028016;28;20018;-62
2023/05/12 02:38:21;;;;;;;3.90;3.50;;;12.60;99.90;;;;;;5010231;28;20037;-60
2023/05/12 02:40:46;;;;;;;3.65;3.35;;;12.60;99.90;;;;;;5026161;28;20455;-63
2023/05/12 02:43:12;;;;;;;5.18;4.63;;;12.60;99.90;;;;;;5029239;28;20108;-61
2023/05/12 02:45:38;;;;;;;4.47;4.07;;;12.70;99.90;;;;;;5029651;28;20037;-62
2023/05/12 02:48:04;;;;;;;4.13;3.63;;;12.70;99.90;;;;;;5028605;28;20021;-62
2023/05/12 02:50:30;;;;;;;5.20;4.35;;;12.60;99.90;;;;;;5029385;28;20079;-61
2023/05/12 02:52:56;;;;;;;8.13;3.85;;;12.70;99.90;;;;;;5029172;28;20025;-62
2023/05/12 02:55:21;;;;;;;4.07;3.67;;;12.60;99.90;;;;;;5011645;28;20405;-62
2023/05/12 02:57:47;;;;;;;4.60;3.53;;;12.60;99.90;;;;;;5029358;28;20503;-62
2023/05/12 03:00:13;;;;;;;4.25;3.83;;;12.60;99.90;;;;;;5028267;28;20116;-62
2023/05/12 03:02:39;;;;;;;4.78;4.30;;;12.50;99.90;;;;;;5024693;28;20026;-62
2023/05/12 03:05:05;;;;;;;4.68;4.28;;;12.50;99.90;;;;;;5029195;28;20029;-63
2023/05/12 03:07:31;;;;;;;4.32;3.83;;;12.60;99.90;;;;;;5011228;28;20399;-61
2023/05/12 03:10:00;;;;;;;4.35;3.95;;;12.50;99.90;;;;;;5028889;28;20036;-62
2023/05/12 03:12:28;;;;;;;4.40;4.00;;;12.50;99.90;;;;;;5011407;28;20029;-62
2023/05/12 03:14:53;;;;;;;4.30;3.88;;;12.50;99.90;;;;;;5028873;28;20088;-62
2023/05/12 03:17:20;;;;;;;4.97;3.88;;;12.50;99.90;;;;;;5026216;28;20037;-62
2023/05/12 03:19:46;;;;;;;5.13;4.18;;;12.50;99.90;;;;;;5028983;28;20021;-62
2023/05/12 03:22:12;;;;;;;4.13;3.67;;;12.50;99.90;;;;;;5025013;28;20438;-62
2023/05/12 03:24:37;;;;;;;5.70;4.18;;;12.50;99.90;;;;;;5028334;28;20734;-62
2023/05/12 03:27:03;;;;;;;4.00;3.67;;;12.50;99.90;;;;;;5028508;28;20124;-62
2023/05/12 03:29:28;;;;;;;4.20;3.80;;;12.50;99.90;;;;;;5027591;28;20632;-60
2023/05/12 03:31:54;;;;;;;4.10;3.70;;;12.50;99.90;;;;;;5026528;28;20037;-62
2023/05/12 03:34:19;;;;;;;3.83;3.53;;;12.50;99.90;;;;;;5027919;28;20025;-62
2023/05/12 03:36:45;;;;;;;4.78;3.50;;;12.50;99.90;;;;;;5026857;28;20103;-62
2023/05/12 03:39:11;;;;;;;7.70;4.45;;;12.60;99.90;;;;;;5027787;28;20516;-62
2023/05/12 03:41:37;;;;;;;3.70;3.38;;;12.60;99.90;;;;;;5023246;28;20028;-62
2023/05/12 03:44:04;;;;;;;4.78;4.10;;;12.60;99.90;;;;;;5026739;28;20127;-62
2023/05/12 03:46:30;;;;;;;4.15;3.75;;;12.60;99.90;;;;;;5027024;28;20096;-61
2023/05/12 03:48:55;;;;;;;3.67;3.38;;;12.60;99.90;;;;;;5027609;28;20484;-62
2023/05/12 03:51:21;;;;;;;4.93;3.80;;;12.60;99.90;;;;;;5027142;28;20030;-62
2023/05/12 03:53:46;;;;;;;3.72;3.42;;;12.60;99.90;;;;;;5027524;28;20398;-62
2023/05/12 03:56:14;;;;;;;5.50;4.10;;;12.60;99.90;;;;;;5027394;28;20026;-62
2023/05/12 03:58:39;;;;;;;4.18;3.67;;;12.60;99.90;;;;;;5027447;28;20024;-62
2023/05/12 04:01:05;;;;;;;4.47;4.15;;;12.60;99.90;;;;;;5026862;28;20108;-62
2023/05/12 04:03:31;;;;;;;4.43;3.78;;;12.60;99.90;;;;;;5023665;28;20033;-59
2023/05/12 04:05:58;;;;;;;4.20;3.80;;;12.60;99.90;;;;;;5024897;28;20488;-61
2023/05/12 04:08:24;;;;;;;6.05;4.10;;;12.70;99.90;;;;;;5025659;28;20620;-62
2023/05/12 04:10:51;;;;;;;5.05;4.45;;;12.60;99.90;;;;;;5027074;28;20034;-61
2023/05/12 04:13:16;;;;;;;4.28;3.97;;;12.70;99.90;;;;;;5027325;28;20256;-59
2023/05/12 04:15:42;;;;;;;4.22;3.83;;;12.70;99.90;;;;;;5027182;28;20025;-62
2023/05/12 04:18:08;;;;;;;4.30;3.90;;;12.70;99.90;;;;;;5027037;28;20017;-62
2023/05/12 04:20:34;;;;;;;4.40;4.00;;;12.70;99.90;;;;;;5027117;28;20022;-61
2023/05/12 04:22:59;;;;;;;4.25;3.90;;;12.70;99.90;;;;;;5024827;28;20101;-61
2023/05/12 04:25:25;;;;;;;3.63;3.30;;;12.80;99.90;;;;;;5026966;28;20108;-61
2023/05/12 04:27:51;;;;;;;4.20;3.80;;;12.80;99.90;;;;;;5026516;28;20079;-60
2023/05/12 04:30:16;;;;;;;5.97;3.97;;;12.80;99.90;;;;;;5025923;28;20290;-62
2023/05/12 04:32:42;;;;;;;4.18;3.67;;;12.80;99.90;;;;;;5025419;28;20040;-62
2023/05/12 04:35:08;;;;;;;4.60;4.20;;;12.90;99.90;;;;;;5025976;28;20029;-62
2023/05/12 04:37:33;;;;;;;4.28;3.97;;;12.90;99.90;;;;;;5023831;28;20546;-61
2023/05/12 04:39:59;;;;;;;4.18;3.65;;;12.90;99.90;;;;;;5025391;28;20048;-62
2023/05/12 04:42:24;;;;;;;4.78;4.13;;;12.90;99.90;;;;;;5009806;28;20117;-61
2023/05/12 04:44:50;;;;;;;4.70;4.07;;;12.90;99.90;;;;;;5026931;28;20510;-62
2023/05/12 04:47:15;;;;;;;5.40;3.88;;;13.00;99.90;;;;;;5026621;28;20026;-61
2023/05/12 04:49:41;;;;;;;4.60;4.20;;;13.00;99.90;;;;;;5026884;28;20021;-62
2023/05/12 04:52:06;;;;;;;4.55;4.10;;;13.00;99.90;;;;;;5026845;28;20499;-62
2023/05/12 04:54:32;;;;;;;6.05;3.75;;;13.10;99.90;;;;;;5026904;28;20033;-62
2023/05/12 04:56:58;;;;;;;4.88;4.38;;;13.10;99.90;;;;;;5030049;28;20029;-62
2023/05/12 04:59:23;;;;;;;4.47;3.50;;;13.10;99.90;;;;;;5030668;28;20476;-61
2023/05/12 05:01:49;;;;;;;5.35;4.15;;;13.10;99.90;;;;;;5030250;28;20464;-61
2023/05/12 05:04:15;;;;;;;5.07;4.65;;;13.20;99.90;;;;;;5030726;28;20387;-60
2023/05/12 05:06:41;;;;;;;4.15;3.75;;;13.20;99.90;;;;;;5030508;28;20395;-63
2023/05/12 05:09:06;;;;;;;5.75;3.80;;;13.20;99.90;;;;;;5029707;28;20030;-61
2023/05/12 05:11:32;;;;;;;5.63;4.32;;;13.20;99.90;;;;;;5029912;28;20030;-62
2023/05/12 05:13:58;;;;;;;4.43;4.03;;;13.20;99.90;;;;;;5030302;28;20087;-62
2023/05/12 05:16:24;;;;;;;5.35;4.68;;;13.30;99.90;;;;;;5029395;28;20036;-61
2023/05/12 05:18:49;;;;;;;4.55;3.80;;;13.30;99.90;;;;;;5029822;28;20098;-62
2023/05/12 05:21:15;;;;;;;5.82;3.67;;;13.30;99.90;;;;;;5025212;28;20025;-62
2023/05/12 05:23:41;;;;;;;4.30;3.85;;;13.40;99.90;;;;;;5028706;28;20514;-62
2023/05/12 05:26:07;;;;;;;4.75;4.25;;;13.40;99.90;;;;;;5029421;28;20160;-61
2023/05/12 05:28:33;;;;;;;4.53;3.78;;;13.40;99.90;;;;;;5029147;28;20113;-63
2023/05/12 05:30:59;;;;;;;4.55;4.15;;;13.50;99.90;;;;;;5028825;28;20208;-62
2023/05/12 05:33:24;;;;;;;7.18;4.30;;;13.50;99.90;;;;;;5028420;28;20018;-62
2023/05/12 05:35:50;;;;;;;6.50;4.18;;;13.60;99.90;;;;;;5029537;28;20055;-62
2023/05/12 05:38:15;;;;;;;4.85;4.25;;;13.60;99.90;;;;;;5027130;28;20018;-62
2023/05/12 05:40:41;;;;;;;4.90;4.40;;;13.70;99.90;;;;;;5029858;28;20037;-61
2023/05/12 05:43:07;;;;;;;4.18;3.72;;;13.80;99.90;;;;;;5029611;28;20022;-63
2023/05/12 05:45:33;;;;;;;4.95;4.45;;;13.80;99.90;;;;;;5029821;28;20288;-62
2023/05/12 05:47:58;;;;;;;7.15;3.95;;;13.80;99.90;;;;;;5028339;28;20083;-62
2023/05/12 05:50:24;;;;;;;5.07;4.32;;;13.80;99.90;;;;;;5027220;28;20034;-61
2023/05/12 05:52:49;;;;;;;4.38;3.97;;;13.90;99.90;;;;;;5030725;28;20083;-62
2023/05/12 05:55:15;;;;;;;4.30;3.90;;;13.90;99.90;;;;;;5029826;28;20069;-62
2023/05/12 05:57:41;;;;;;;6.00;3.85;;;14.00;99.90;;;;;;5026897;28;20056;-62
2023/05/12 06:00:08;;;;;;;4.45;3.60;;;14.00;99.90;;;;;;5028037;28;20022;-63
2023/05/12 06:02:34;;;;;;;4.28;3.90;;;14.10;99.90;;;;;;5029830;28;20559;-61
2023/05/12 06:05:00;;;;;;;4.43;4.00;;;14.20;99.90;;;;;;5028432;28;20073;-62
2023/05/12 06:07:26;;;;;;;5.68;4.25;;;14.20;99.90;;;;;;5027747;28;20053;-62
2023/05/12 06:09:53;;;;;;;4.30;3.97;;;14.30;99.90;;;;;;5032422;28;20030;-62
2023/05/12 06:12:18;;;;;;;6.95;4.30;;;14.40;99.90;;;;;;5029255;28;20481;-61
2023/05/12 06:14:44;;;;;;;4.13;3.72;;;14.40;99.90;;;;;;5029465;28;20046;-62
2023/05/12 06:17:09;;;;;;;4.55;4.15;;;14.50;99.90;;;;;;5029083;28;20476;-62
2023/05/12 06:19:35;;;;;;;7.05;4.43;;;14.60;99.90;;;;;;5029217;28;20027;-61
2023/05/12 06:22:01;;;;;;;5.88;3.75;;;14.70;99.90;;;;;;5028706;28;20470;-62
2023/05/12 06:24:26;;;;;;;4.63;4.10;;;14.70;99.90;;;;;;5029191;28;20086;-63
2023/05/12 06:26:52;;;;;;;5.30;3.67;;;14.80;99.90;;;;;;5004405;28;20022;-62
2023/05/12 06:29:18;;;;;;;4.18;3.78;;;14.90;99.90;;;;;;5028513;28;20049;-62
2023/05/12 06:31:44;;;;;;;4.82;3.83;;;15.00;99.90;;;;;;5028359;28;20033;-60
2023/05/12 06:34:12;;;;;;;4.53;4.13;;;15.20;99.90;;;;;;5028668;28;20030;-62
2023/05/12 06:36:38;;;;;;;5.13;3.83;;;15.30;99.90;;;;;;5028207;28;20057;-62
2023/05/12 06:39:04;;;;;;;4.75;4.20;;;15.30;99.90;;;;;;5010629;28;20122;-62
2023/05/12 06:41:30;;;;;;;3.92;3.55;;;15.40;99.90;;;;;;5019143;28;20387;-62
2023/05/12 06:43:55;;;;;;;5.38;4.20;;;15.40;99.90;;;;;;5027464;28;20116;-61
2023/05/12 06:46:21;;;;;;;5.57;4.40;;;15.50;99.90;;;;;;5028630;28;20033;-61
2023/05/12 06:48:47;;;;;;;6.88;4.35;;;15.60;99.90;;;;;;5028664;28;20033;-62
2023/05/12 06:51:12;;;;;;;5.05;3.55;;;15.60;99.90;;;;;;5028419;28;20032;-62
2023/05/12 06:53:40;;;;;;;5.95;3.83;;;15.70;99.90;;;;;;5028559;28;20508;-62
2023/05/12 06:56:06;;;;;;;4.20;3.80;;;15.80;99.90;;;;;;5028383;28;20387;-60
2023/05/12 06:58:31;;;;;;;5.05;4.03;;;15.80;99.90;;;;;;5028132;28;20041;-63
2023/05/12 07:00:57;;;;;;;6.50;3.92;;;15.90;99.90;;;;;;5027815;28;20060;-62
2023/05/12 07:03:23;;;;;;;5.32;3.95;;;16.00;99.90;;;;;;5028347;28;20089;-62
2023/05/12 07:05:49;;;;;;;4.40;4.00;;;16.10;99.90;;;;;;5010627;28;20021;-61
2023/05/12 07:08:14;;;;;;;4.60;4.20;;;16.20;99.90;;;;;;5024395;28;20116;-59
2023/05/12 07:10:40;;;;;;;3.72;3.42;;;16.20;99.90;;;;;;5028488;28;20088;-63
2023/05/12 07:13:06;;;;;;;4.93;3.83;;;16.30;99.90;;;;;;5028069;28;20053;-60
2023/05/12 07:15:31;;;;;;;4.50;3.88;;;16.40;99.90;;;;;;5010004;28;20021;-60
2023/05/12 07:17:57;;;;;;;6.05;4.20;;;16.40;99.90;;;;;;5010144;28;20029;-60
2023/05/12 07:20:22;;;;;;;3.75;3.45;;;16.50;99.90;;;;;;5027333;28;20104;-61
2023/05/12 07:22:50;;;;;;;4.38;3.97;;;16.50;99.90;;;;;;5027275;28;20262;-59
2023/05/12 07:25:15;;;;;;;4.57;3.83;;;16.60;99.90;;;;;;5008775;28;20448;-60
2023/05/12 07:27:41;;;;;;;4.35;3.95;;;16.70;99.90;;;;;;5027683;28;20058;-61
2023/05/12 07:30:07;;;;;;;5.95;3.85;;;16.80;99.90;;;;;;5025324;28;20033;-61
2023/05/12 07:32:33;;;;;;;7.07;3.80;;;16.80;99.90;;;;;;5053782;23;20072;-54
2023/05/12 07:34:59;;;;;;;4.70;3.70;;;16.90;99.90;;;;;;5034083;28;20447;-55
2023/05/12 07:37:24;;;;;;;5.45;3.83;;;17.00;99.90;;;;;;5028588;28;20438;-56
2023/05/12 07:39:50;;;;;;;4.95;4.50;;;17.10;99.90;;;;;;5032181;28;20090;-51
2023/05/12 07:42:15;;;;;;;6.63;3.92;;;17.20;99.90;;;;;;5028431;28;20112;-54
2023/05/12 07:44:41;;;;;;;5.88;3.92;;;17.30;99.90;;;;;;5027901;28;20475;-52
2023/05/12 07:47:07;;;;;;;3.60;3.35;;;17.30;99.90;;;;;;5027769;28;20049;-56
2023/05/12 07:49:32;;;;;;;5.93;3.83;;;17.40;99.90;;;;;;5028056;28;20384;-51
2023/05/12 07:51:58;;;;;;;6.72;3.58;;;17.50;99.90;;;;;;5027484;28;20084;-56
2023/05/12 07:54:23;;;;;;;4.20;3.80;;;17.60;99.90;;;;;;5028108;28;20533;-53
2023/05/12 07:56:49;;;;;;;5.63;4.40;;;17.70;99.90;;;;;;5027081;28;20026;-52
2023/05/12 07:59:15;;;;;;;5.68;4.20;;;17.80;99.90;;;;;;5027738;28;20133;-51
2023/05/12 08:01:41;;;;;;;4.75;3.80;;;17.90;99.90;;;;;;5027419;28;20034;-51
2023/05/12 08:04:07;;;;;;;4.90;3.80;;;18.00;99.90;;;;;;5027944;28;20604;-53
2023/05/12 08:06:33;;;;;;;4.22;3.83;;;18.20;99.90;;;;;;5021519;28;20109;-54
2023/05/12 08:08:59;;;;;;;5.15;3.80;;;18.30;99.90;;;;;;5028391;28;20071;-53
2023/05/12 08:11:25;;;;;;;4.10;3.70;;;18.40;99.90;;;;;;5013387;28;20080;-51
2023/05/12 08:13:51;;;;;;;3.88;3.58;;;18.40;99.90;;;;;;5026981;28;20021;-54
2023/05/12 08:16:16;;;;;;;5.20;3.83;;;18.60;99.90;;;;;;5027557;28;20539;-55
2023/05/12 08:18:42;;;;;;;7.20;4.10;;;18.70;99.90;;;;;;5026019;28;20022;-56
2023/05/12 08:21:08;;;;;;;4.10;3.47;;;18.90;99.90;;;;;;5026748;28;20095;-54
2023/05/12 08:23:33;;;;;;;6.88;4.50;;;19.00;99.90;;;;;;5027324;28;20028;-49
2023/05/12 08:25:59;;;;;;;7.03;4.38;;;19.20;99.90;;;;;;5027788;28;20029;-51
2023/05/12 08:28:24;;;;;;;5.55;4.22;;;19.40;99.90;;;;;;5027312;28;20021;-50
2023/05/12 08:30:50;;;;;;;4.18;3.75;;;19.50;99.90;;;;;;5027610;28;20125;-50
2023/05/12 08:33:16;;;;;;;4.90;4.03;;;19.70;99.90;;;;;;5031512;28;20033;-49
2023/05/12 08:35:41;;;;;;;4.10;3.70;;;19.90;99.90;;;;;;5030930;28;20446;-50
2023/05/12 08:38:07;;;;;;;5.40;3.85;;;20.20;99.90;;;;;;5030150;28;20100;-52
2023/05/12 08:40:39;;;;;;;5.18;3.72;;;20.50;98.70;;;;;;5031536;28;20025;-52
2023/05/12 08:43:25;;;;;;;4.40;3.60;;;20.80;98.90;;;;;;5030695;28;20041;-54
2023/05/12 08:45:56;;;;;;;3.72;3.05;;;21.00;97.90;;;;;;5031533;28;20021;-51
2023/05/12 08:48:24;;;;;;;4.43;3.25;;;21.30;98.10;;;;;;5030621;28;20048;-52
2023/05/12 08:50:52;;;;;;;4.35;3.08;;;21.60;97.20;;;;;;5031672;28;20018;-53
2023/05/12 08:53:19;;;;;;;4.13;3.72;;;21.80;95.90;;;;;;5029738;28;20104;-51
2023/05/12 08:55:46;;;;;;;5.25;3.13;;;21.90;93.20;;;;;;5031362;28;20036;-54
2023/05/12 08:58:13;;;;;;;3.35;3.05;;;21.90;93.00;;;;;;5030511;28;20488;-49
2023/05/12 09:00:40;;;;;;;5.22;3.05;;;22.00;92.30;;;;;;5030488;28;20037;-51
2023/05/12 09:03:06;;;;;;;3.33;3.03;;;22.10;92.30;;;;;;5031032;28;20021;-50
2023/05/12 09:05:32;;;;;;;4.03;2.85;;;22.30;93.60;;;;;;5027741;28;20025;-53
2023/05/12 09:07:59;;;;;;;5.32;3.25;;;22.40;90.40;;;;;;5030904;28;20029;-50
2023/05/12 09:10:27;;;;;;;3.20;2.90;;;22.40;90.20;;;;;;5031055;28;20018;-53
2023/05/12 09:12:58;;;;;;;4.10;3.22;;;22.50;90.60;;;;;;5030694;28;20026;-52
2023/05/12 09:15:38;;;;;;;3.65;3.33;;;22.70;89.50;;;;;;5021092;28;20062;-52
2023/05/12 09:18:03;;;;;;;4.30;3.55;;;22.70;86.60;;;;;;5030465;28;20025;-54
2023/05/12 09:20:29;;;;;;;3.38;3.00;;;22.70;85.50;;;;;;5009804;28;20024;-52
2023/05/12 09:22:57;;;;;;;2.95;2.70;;;22.50;85.00;;;;;;5031159;28;20029;-55
2023/05/12 09:25:22;;;;;;;3.03;2.72;;;22.50;83.90;;;;;;5023102;28;20510;-58
2023/05/12 09:27:53;;;;;;;4.75;2.90;;;22.50;85.80;;;;;;5029951;28;20218;-52
2023/05/12 09:30:29;;;;;;;4.22;2.53;;;22.50;86.80;;;;;;5030242;28;20029;-51
2023/05/12 09:33:05;;;;;;;5.30;3.92;;;22.60;84.20;;;;;;5030177;28;20021;-51
2023/05/12 09:35:30;;;;;;;4.47;3.20;;;22.60;81.30;;;;;;5023282;28;20025;-53
2023/05/12 09:37:56;;;;;;;3.97;2.90;;;22.60;82.20;;;;;;5026771;28;20077;-50
2023/05/12 09:40:21;;;;;;;3.42;3.13;;;22.70;80.00;;;;;;5030810;28;20070;-52
2023/05/12 09:42:47;;;;;;;4.43;2.85;;;22.60;78.80;;;;;;5021350;28;20204;-49
2023/05/12 09:45:13;;;;;;;4.05;3.08;;;22.50;79.90;;;;;;5030081;28;20098;-52
2023/05/12 09:47:39;;;;;;;6.28;3.58;;;22.60;81.90;;;;;;5029040;28;20100;-51
2023/05/12 09:50:06;;;;;;;4.85;3.13;;;22.60;81.30;;;;;;5029711;28;20502;-52
2023/05/12 09:52:36;;;;;;;3.55;3.10;;;22.60;78.40;;;;;;5028619;28;20025;-53
2023/05/12 09:55:10;;;;;;;4.43;3.10;;;22.50;79.90;;;;;;5029802;28;20029;-52
2023/05/12 09:57:39;;;;;;;4.57;2.38;;;22.40;80.40;;;;;;5029908;28;20025;-54
2023/05/12 10:00:07;;;;;;;3.45;3.15;;;22.40;81.60;;;;;;5028693;28;20045;-51
2023/05/12 10:02:33;;;;;;;5.13;3.67;;;22.40;80.30;;;;;;5023467;28;20114;-53
2023/05/12 10:05:04;;;;;;;3.25;2.97;;;22.30;79.30;;;;;;5025135;28;20036;-54
2023/05/12 10:07:32;;;;;;;3.53;3.15;;;22.30;78.90;;;;;;5025820;28;20030;-53
2023/05/12 10:10:02;;;;;;;3.15;2.85;;;22.30;77.90;;;;;;5026501;28;20036;-57
2023/05/12 10:12:27;;;;;;;7.38;3.63;;;22.30;78.60;;;;;;5026343;28;20038;-53
2023/05/12 10:14:54;;;;;;;4.07;2.88;;;22.20;81.30;;;;;;5029903;28;20049;-50
2023/05/12 10:17:19;;;;;;;4.90;3.05;;;22.30;81.60;;;;;;5028369;28;20032;-51
2023/05/12 10:19:47;;;;;;;3.17;2.92;;;22.30;81.50;;;;;;5029448;28;20029;-51
2023/05/12 10:22:14;;;;;;;3.95;3.03;;;22.30;81.70;;;;;;5029605;28;20033;-52
2023/05/12 10:24:40;;;;;;;7.07;3.47;;;22.40;81.40;;;;;;5011063;28;20025;-53
2023/05/12 10:27:07;;;;;;;4.68;3.15;;;22.40;83.00;;;;;;5029303;28;20105;-51
2023/05/12 10:29:33;;;;;;;5.07;3.33;;;22.30;82.00;;;;;;5027624;28;20022;-50
2023/05/12 10:32:00;;;;;;;3.45;3.10;;;22.00;79.90;;;;;;5024817;28;20038;-49
2023/05/12 10:34:32;;;;;;;3.72;3.03;;;21.90;83.70;;;;;;5029227;28;20099;-51
2023/05/12 10:36:57;;;;;;;4.43;2.92;;;21.90;84.90;;;;;;5027495;28;20025;-50
2023/05/12 10:39:31;;;;;;;3.72;2.78;;;21.90;80.40;;;;;;5029510;28;20040;-52
2023/05/12 10:42:04;;;;;;;4.18;3.13;;;21.90;78.50;;;;;;5027496;28;20404;-50
2023/05/12 10:44:29;;;;;;;4.30;3.22;;;21.80;80.00;;;;;;5024644;28;20057;-54
2023/05/12 10:46:57;;;;;;;2.85;2.55;;;21.80;79.60;;;;;;5024295;28;20502;-50
2023/05/12 10:49:32;;;;;;;3.42;2.72;;;21.90;78.00;;;;;;5016308;28;20040;-51
2023/05/12 10:51:59;;;;;;;3.17;2.87;;;22.00;76.40;;;;;;5025584;28;20021;-56
2023/05/12 10:54:25;;;;;;;3.92;2.92;;;22.00;78.00;;;;;;5028979;28;20443;-50
2023/05/12 10:56:51;;;;;;;3.95;2.70;;;21.90;75.30;;;;;;5028459;28;20040;-52
2023/05/12 10:59:22;;;;;;;3.70;3.33;;;21.70;76.40;;;;;;5028811;28;20397;-50
2023/05/12 11:02:17;;;;;;;4.20;2.92;;;21.70;73.80;;;;;;5028588;28;20499;-48
2023/05/12 11:04:58;;;;;;;3.38;2.97;;;21.70;73.60;;;;;;5021610;28;20104;-53
2023/05/12 11:07:30;;;;;;;3.28;2.95;;;21.80;74.80;;;;;;5020917;28;20392;-48
2023/05/12 11:09:57;;;;;;;4.25;3.05;;;22.00;76.00;;;;;;5028838;28;20021;-51
2023/05/12 11:12:25;;;;;;;4.13;3.05;;;22.00;75.80;;;;;;5020476;28;20517;-49
2023/05/12 11:14:51;;;;;;;2.90;2.70;;;22.00;73.70;;;;;;5028629;28;20104;-53
2023/05/12 11:17:16;;;;;;;4.28;2.45;;;22.00;70.40;;;;;;5028089;28;20140;-52
2023/05/12 11:19:47;;;;;;;4.57;2.60;;;22.00;70.30;;;;;;5010662;28;20041;-51
2023/05/12 11:22:16;;;;;;;3.28;2.75;;;22.10;73.70;;;;;;5028291;28;20125;-49
2023/05/12 11:24:42;;;;;;;5.80;2.83;;;22.20;72.30;;;;;;5028695;28;20021;-51
2023/05/12 11:27:13;;;;;;;2.78;2.55;;;22.20;71.60;;;;;;5027948;28;20025;-50
2023/05/12 11:29:40;;;;;;;3.22;2.90;;;22.20;70.90;;;;;;5028374;28;20090;-48
2023/05/12 11:32:07;;;;;;;3.92;3.13;;;22.30;70.30;;;;;;5027586;28;20029;-51
2023/05/12 11:34:33;;;;;;;3.58;2.38;;;22.20;68.60;;;;;;5008316;28;20526;-49
2023/05/12 11:36:59;;;;;;;3.28;2.90;;;22.30;69.00;;;;;;5027620;28;20022;-50
2023/05/12 11:39:26;;;;;;;3.03;2.58;;;22.30;69.30;;;;;;5028653;28;20385;-51
2023/05/12 11:41:52;;;;;;;4.03;2.60;;;22.30;69.50;;;;;;5027724;28;20025;-47
2023/05/12 11:44:20;;;;;;;3.45;2.30;;;22.40;68.10;;;;;;5028107;28;20395;-50
2023/05/12 11:46:56;;;;;;;2.63;2.35;;;22.30;65.40;;;;;;5028271;28;20084;-53
2023/05/12 11:49:21;;;;;;;;;;;22.30;63.30;;;;;;5028551;28;20037;-51
2023/05/12 11:51:47;;;;;;;4.37;2.60;;;22.30;66.20;;;;;;5028151;28;19909;-51
2023/05/12 11:54:14;;;;;;;3.58;2.65;;;22.30;66.80;;;;;;5026658;28;20343;-49
2023/05/12 11:56:52;;;;;;;5.55;2.80;;;22.40;66.80;;;;;;5027816;28;20071;-49
2023/05/12 11:59:29;;;;;;;6.25;2.58;;;22.30;67.40;;;;;;5027952;28;20017;-51
2023/05/12 12:01:56;;;;;;;3.25;2.55;;;22.40;63.60;;;;;;5027282;28;20033;-51
2023/05/12 12:04:36;;;;;;;3.47;2.50;;;22.40;64.70;;;;;;5027999;28;20029;-49
2023/05/12 12:07:06;;;;;;;3.03;2.70;;;22.40;64.60;;;;;;5029933;28;20483;-51
2023/05/12 12:09:39;;;;;;;2.60;2.40;;;22.50;65.00;;;;;;5031609;28;20426;-56
2023/05/12 12:12:06;;;;;;;2.60;2.40;;;22.50;64.60;;;;;;5031720;28;20025;-52
2023/05/12 12:14:33;;;;;;;4.10;2.13;;;22.40;63.60;;;;;;5032129;28;20422;-51
2023/05/12 12:16:59;;;;;;;3.95;2.45;;;22.40;63.80;;;;;;5031094;28;20032;-54
2023/05/12 12:19:26;;;;;;;4.28;2.30;;;22.30;63.70;;;;;;5031605;28;20017;-53
2023/05/12 12:21:52;;;;;;;4.88;2.45;;;22.20;64.90;;;;;;5013926;28;20096;-50
2023/05/12 12:24:18;;;;;;;3.40;2.58;;;22.40;63.30;;;;;;5031261;28;20062;-53
2023/05/12 12:26:43;;;;;;;3.42;2.40;;;22.40;63.30;;;;;;5031027;28;20034;-53
2023/05/12 12:29:09;;;;;;;3.42;2.75;;;22.40;62.80;;;;;;5031687;28;20057;-53
2023/05/12 12:31:35;;;;;;;3.35;2.30;;;22.40;64.60;;;;;;5030951;28;20025;-54
2023/05/12 12:34:01;;;;;;;3.55;2.40;;;22.40;65.40;;;;;;5031727;28;20021;-49
2023/05/12 12:36:27;;;;;;;2.90;2.63;;;22.40;64.40;;;;;;5031059;28;20506;-50
2023/05/12 12:38:52;;;;;;;3.97;2.50;;;22.50;65.40;;;;;;5013838;28;20030;-49
2023/05/12 12:41:18;;;;;;;5.65;2.20;;;22.50;63.90;;;;;;5028189;28;20029;-50
2023/05/12 12:43:44;;;;;;;2.80;2.28;;;22.60;64.70;;;;;;5031464;28;20462;-52
2023/05/12 12:46:10;;;;;;;10.02;2.75;;;22.70;63.90;;;;;;5027706;28;20033;-50